This is the latest recevied weather packets stored in our database for station/object EFOU. If no packets are shown the sender has not sent any weather packets the latest 10 day(s).
| Time | Temp. | Humidity | Pressure | Rain* | Wind** | Luminosity | Snow |
|---|---|---|---|---|---|---|---|
| 1777621614 | 9.44° C | 61% | 1014.7 hPa | - | - | - | - |
| 1777620414 | 8.89° C | 64% | 1014.9 hPa | - | - | - | - |
| 1777619214 | 8.89° C | 64% | 1015 hPa | - | - | - | - |
| 1777618014 | 8.89° C | 65% | 1015 hPa | - | - | - | - |
| 1777616814 | 7.22° C | 70% | 1014.9 hPa | - | - | - | - |
| 1777615614 | 7.22° C | 69% | 1015 hPa | - | - | - | - |
| 1777614414 | 7.22° C | 71% | 1015.1 hPa | - | - | - | - |
| 1777613214 | 6.67° C | 73% | 1015.3 hPa | - | - | - | - |
| 1777612013 | 5.56° C | 78% | 1015.4 hPa | - | - | - | - |
| 1777610814 | 5.56° C | 79% | 1015.3 hPa | - | - | - | - |
| 1777609613 | 5.56° C | 79% | 1015.4 hPa | - | - | - | - |
| 1777608414 | 5° C | 80% | 1015.4 hPa | - | - | - | - |
| 1777607213 | 4.44° C | 83% | 1015.7 hPa | - | - | - | - |
| 1777606013 | 4.44° C | 82% | 1015.9 hPa | - | - | - | - |
| 1777604814 | 4.44° C | 82% | 1016.1 hPa | - | - | - | - |
| 1777603614 | 4.44° C | 81% | 1016.1 hPa | - | - | - | - |
| 1777602413 | 4.44° C | 83% | 1016.2 hPa | - | - | - | - |
| 1777601213 | 4.44° C | 82% | 1016.1 hPa | - | - | - | - |
| 1777600013 | 4.44° C | 84% | 1016.2 hPa | - | - | - | - |
| 1777598813 | 4.44° C | 84% | 1016.3 hPa | - | - | - | - |
| 1777597613 | 3.89° C | 86% | 1016.6 hPa | - | - | - | - |
| 1777596413 | 3.89° C | 86% | 1016.7 hPa | - | - | - | - |
| 1777595213 | 3.89° C | 88% | 1016.8 hPa | - | - | - | - |
| 1777594013 | 4.44° C | 84% | 1017 hPa | - | - | - | - |
| 1777592813 | 5° C | 83% | 1017.1 hPa | - | - | - | - |
* Rain since midnight (hover to see other rain measurements)
** Current wind speed in m/s (hover to see current wind gust speed)